默认 日期 大小 文件数 浏览量 最新下载 xml
12 year磁力链接相关资源由用户搜索指令自动获取,结果来源于网络,本站不存储任何资料,亦不承担任何责任,请于24小时内删除,搜索到1219个磁力,用时35ms。
    {"RARBG.com.txt": 34, "wgp.14.12.29.ash.hollywood.and.dakota.sky.a.new.year.to.remember.mp4": 1384682681, "wgp.14.12.29.ash.hollywood.and.dakota.sky.a.new.year.to.remember.nfo": 7015}
创建时间: 2018-12-28 00:31:47 大小:1.29 GB 文件数量:3 热度:20 最近下载:2025-09-20 06:25:02
    {"gotmylf.18.12.27.mia.lelani.new.year.new.d[N1C].mp4": 3335450663}
创建时间: 2018-12-28 02:18:51 大小:3.11 GB 文件数量:1 热度:24 最近下载:2025-08-03 05:46:01
    {"yanks.16.12.07.laney.plans.on.a.wild.sexy.year.ahead.mp4": 265874525}
创建时间: 2018-12-28 04:47:32 大小:253.56 MB 文件数量:1 热度:7 最近下载:2024-04-12 11:31:07
    {"brattysis.18.12.28.kiara.cole.bratty.new.year.mp4": 265963139}
创建时间: 2018-12-28 17:56:21 大小:253.64 MB 文件数量:1 热度:16 最近下载:2025-02-09 03:47:03
    {"RARBG.txt": 30, "brattysis.18.12.28.kiara.cole.bratty.new.year.mp4": 3204004736, "brattysis.18.12.28.kiara.cole.bratty.new.year.nfo": 5195}
创建时间: 2018-12-28 19:51:39 大小:2.98 GB 文件数量:3 热度:50 最近下载:2025-08-15 04:46:01
    {"Ls magazine top collection 12 15 year old nude models pthc.zip": 51388724}
创建时间: 2018-12-28 20:13:53 大小:49.01 MB 文件数量:1 热度:34 最近下载:2025-09-19 21:56:05
    {"RARBG.txt": 30, "BrattySis.18.12.28.Kiara.Cole.Bratty.New.Year.XXX.SD.MP4-KLEENEX.mp4": 260383719}
创建时间: 2018-12-28 23:53:28 大小:248.32 MB 文件数量:2 热度:19 最近下载:2025-09-19 21:17:01
    {"RARBG.txt": 30, "gotmylf.18.12.27.mia.lelani.new.year.new.d.mp4": 3336238032, "gotmylf.18.12.27.mia.lelani.new.year.new.d.nfo": 5189}
创建时间: 2018-12-29 08:37:00 大小:3.11 GB 文件数量:3 热度:42 最近下载:2025-09-29 10:11:03
    ... .12.11.mp3": 100971459, "Luminosity_2_Year_Anniversary_-_02_Airbase_2009.12.11.mp3": 182933047, "Luminosity_2_Year_Anniversary_-_03_Ronski_Speed_2009.12 ... .O.R.P.H._2009.12.11.mp3": 121059206}
创建时间: 2018-12-29 22:31:27 大小:551.03 MB 文件数量:4 热度:5 最近下载:2023-04-19 11:20:05
    {"Sample": {"pr0n0z-120909.ulia.analized_sample.wmv": 35758075}, "RARBG.com.txt": 34, "pr0n0z-120909.ulia.analized.nfo": 642, "pr0n0z-120909.18.year.old.pretty.ulia.analized.wmv": 1151779139}
创建时间: 2018-12-30 02:13:50 大小:1.11 GB 文件数量:4 热度:14 最近下载:2025-02-07 06:06:03
    {"bbg.18.12.27.2018.year.in.review.compilation.47.facials.mp4": 393006095}
创建时间: 2018-12-30 05:44:38 大小:374.8 MB 文件数量:1 热度:8 最近下载:2025-01-11 02:56:01
    {"brattysis.18.12.28.kiara.cole.bratty.new.year[N1C].mp4": 3204004492}
创建时间: 2018-12-30 06:39:42 大小:2.98 GB 文件数量:1 热度:18 最近下载:2025-07-23 23:12:01
    {"bbg.18.12.27.2018.year.in.review.compilation.47.facials[N1C].mp4": 1410694298}
创建时间: 2018-12-30 16:45:48 大小:1.31 GB 文件数量:1 热度:9 最近下载:2024-12-11 08:05:02
    {"povd.16.12.30.madison.hart.foodie.new.year[N1C].mp4": 2865562036}
创建时间: 2018-12-30 21:51:21 大小:2.67 GB 文件数量:1 热度:12 最近下载:2025-08-02 14:07:19
    {"Ls magazine pthc top collection 12 15 year old nude models hr wallpapers.zip": 31989242}
创建时间: 2018-12-31 06:59:36 大小:30.51 MB 文件数量:1 热度:33 最近下载:2025-05-28 15:30:02
    {"RARBG.txt": 30, "bbg.18.12.27.2018.year.in.review.compilation.47.facials.mp4": 1411863628, "bbg.18.12.27.2018.year.in.review.compilation.47.facials.nfo": 5223}
创建时间: 2018-12-31 11:07:49 大小:1.31 GB 文件数量:3 热度:14 最近下载:2025-07-07 05:57:02
    {"RARBG.txt": 30, "BlowBangGirls.18.12.27.2018.Year.In.Review.Compilation.47.Facials.XXX.SD.MP4-KLEENEX.mp4": 385060763}
创建时间: 2018-12-31 14:01:50 大小:367.22 MB 文件数量:2 热度:8 最近下载:2024-12-28 18:42:02
    {"RARBG.txt": 30, "dontbreakme.18.12.31.chloe.temple.breaking.in.the.new.year.mp4": 3425348548, "dontbreakme.18.12.31.chloe.temple.breaking.in.the.new.year.nfo": 5209}
创建时间: 2018-12-31 14:35:56 大小:3.19 GB 文件数量:3 热度:73 最近下载:2025-08-12 23:59:02
    {"RARBG.txt": 30, "RealWifeStories.18.12.31.Angela.White.Fappy.New.Year.XXX.SD.MP4-KLEENEX.mp4": 329501209}
创建时间: 2018-12-31 15:44:35 大小:314.24 MB 文件数量:2 热度:42 最近下载:2025-08-02 12:06:11
    {"bex.18.12.31.luna.star.squirting.in.the.new.year[N1C].mp4": 1555714094}
创建时间: 2018-12-31 17:26:50 大小:1.45 GB 文件数量:1 热度:25 最近下载:2025-08-07 18:50:02